»·PEaware :: N359W KMFR-KRDD

N359W :: KMFR-KRDD

FLIGHT INFORMATION

Flight Status: Arrived
Operator: Privately registered:
United States
More flights under this callsign
Pilot: Anonymous 18613 (18613)
Aircraft: BEECH AIRCRAFT A90-E90 KING AIR
(BE9L)
More flights by this aircraft type
Origin: KMFR Rogue Valley Intl-Medford
United States
Destination: KRDD Redding Mun
United States
More flights between these airports :: More routes between these airports
Route: +JKSN1 OED V23 RBL
File this flight plan on PilotEdge
Remarks:
Altitude:
(Current/Filed)
12,000ft
Speed:
(Current/Filed)
185kts
Departed: 08-Aug-18 01:13 PM
Arrived: 08-Aug-18 02:11 PM
Distance/Time
Traveled:
115nm/0:58
Distance/Time
To Go:
Arrived

Flight Plot

Page will automatically refresh every two minutes.

Flight plan parsing failed; only flown route is shown


Map Options




Map Legend


Flown Route
Filed Route
Departure Airport
Arrival Airport
Navaid (VOR, NDB)
Fix

Horizontal Profiles

Position Reports

Time Latitude Longitude Heading Altitude Ground
Speed
08-Aug-18 12:57 42.379346 -122.878623 249 1336ft 0kts
08-Aug-18 12:58 42.379346 -122.878623 249 1336ft 0kts
08-Aug-18 12:59 42.379346 -122.878623 249 1336ft 0kts
08-Aug-18 13:00 42.379346 -122.878623 249 1336ft 0kts
08-Aug-18 13:01 42.379346 -122.878623 249 1336ft 0kts
08-Aug-18 13:02 42.379346 -122.878623 249 1336ft 0kts
08-Aug-18 13:03 42.379346 -122.878623 249 1336ft 0kts
08-Aug-18 13:04 42.379346 -122.878623 249 1336ft 0kts
08-Aug-18 13:05 42.379346 -122.878623 249 1336ft 0kts
08-Aug-18 13:06 42.379346 -122.878623 249 1336ft 0kts
08-Aug-18 13:07 42.379769 -122.878775 71 1336ft 5kts
08-Aug-18 13:08 42.379638 -122.877354 158 1336ft 18kts
08-Aug-18 13:09 42.372235 -122.873398 154 1336ft 34kts
08-Aug-18 13:10 42.363617 -122.868756 120 1336ft 10kts
08-Aug-18 13:11 42.363593 -122.868518 84 1336ft 0kts
08-Aug-18 13:12 42.363593 -122.868518 84 1336ft 0kts
08-Aug-18 13:13 42.364024 -122.867538 338 1336ft 0kts
08-Aug-18 13:14 42.375639 -122.873614 338 1423ft 128kts
08-Aug-18 13:15 42.409284 -122.891873 338 3115ft 132kts
08-Aug-18 13:16 42.444041 -122.905990 350 4778ft 132kts
08-Aug-18 13:17 42.479921 -122.913169 348 6345ft 131kts
08-Aug-18 13:18 42.516714 -122.920543 347 7711ft 138kts
08-Aug-18 13:19 42.555293 -122.928286 347 9036ft 142kts
08-Aug-18 13:20 42.574707 -122.956749 219 10235ft 127kts
08-Aug-18 13:21 42.542697 -122.943050 152 11454ft 129kts
08-Aug-18 13:22 42.509228 -122.917601 175 12035ft 161kts
08-Aug-18 13:23 42.459223 -122.910767 176 12020ft 194kts
08-Aug-18 13:24 42.403523 -122.905808 176 12018ft 204kts
08-Aug-18 13:25 42.346781 -122.900644 176 12017ft 207kts
08-Aug-18 13:26 42.289069 -122.895367 176 12017ft 208kts
08-Aug-18 13:27 42.231450 -122.890097 176 12017ft 208kts
08-Aug-18 13:28 42.173824 -122.884831 176 12016ft 208kts
08-Aug-18 13:29 42.116879 -122.878670 172 12015ft 207kts
08-Aug-18 13:30 42.059421 -122.872537 175 12023ft 207kts
08-Aug-18 13:31 42.002183 -122.866227 175 12045ft 207kts
08-Aug-18 13:32 41.944806 -122.859944 175 12067ft 207kts
08-Aug-18 13:33 41.888080 -122.853766 175 12083ft 207kts
08-Aug-18 13:34 41.830605 -122.847551 175 12083ft 208kts
08-Aug-18 13:35 41.772867 -122.841282 175 12083ft 208kts
08-Aug-18 13:36 41.715185 -122.835019 175 12083ft 208kts
08-Aug-18 13:37 41.657432 -122.828764 175 12083ft 208kts
08-Aug-18 13:38 41.599586 -122.822511 175 12082ft 208kts
08-Aug-18 13:39 41.541827 -122.816245 175 12082ft 208kts
08-Aug-18 13:40 41.484242 -122.809980 175 12082ft 208kts
08-Aug-18 13:41 41.427526 -122.796523 163 12082ft 209kts
08-Aug-18 13:42 41.372579 -122.771936 159 12082ft 209kts
08-Aug-18 13:43 41.319052 -122.747358 163 12081ft 209kts
08-Aug-18 13:44 41.263872 -122.723698 163 12081ft 209kts
08-Aug-18 13:45 41.208441 -122.700049 163 12081ft 209kts
08-Aug-18 13:46 41.153300 -122.676589 163 12080ft 209kts
08-Aug-18 13:47 41.097939 -122.653090 163 12070ft 209kts
08-Aug-18 13:48 41.042557 -122.629628 162 12030ft 209kts
08-Aug-18 13:49 40.987392 -122.606294 162 11991ft 208kts
08-Aug-18 13:50 40.932416 -122.583066 161 11969ft 207kts
08-Aug-18 13:51 40.879507 -122.560904 162 11973ft 206kts
08-Aug-18 13:52 40.824704 -122.537982 161 11973ft 207kts
08-Aug-18 13:53 40.770068 -122.515037 161 11973ft 207kts
08-Aug-18 13:54 40.715352 -122.492074 161 11972ft 207kts
08-Aug-18 13:55 40.660646 -122.469162 161 11972ft 206kts
08-Aug-18 13:56 40.605960 -122.446298 161 11972ft 206kts
08-Aug-18 13:57 40.551210 -122.423446 161 11972ft 206kts
08-Aug-18 13:58 40.500884 -122.402475 161 11971ft 206kts
08-Aug-18 13:59 40.477149 -122.350990 103 11972ft 214kts
08-Aug-18 14:00 40.467474 -122.275983 103 11969ft 215kts
08-Aug-18 14:01 40.456319 -122.197375 103 10133ft 213kts
08-Aug-18 14:02 40.420055 -122.154681 174 8126ft 205kts
08-Aug-18 14:03 40.363899 -122.150966 174 6126ft 201kts
08-Aug-18 14:04 40.307723 -122.146314 174 4990ft 199kts
08-Aug-18 14:05 40.273475 -122.183523 262 4959ft 213kts
08-Aug-18 14:06 40.267250 -122.257261 262 3581ft 202kts
08-Aug-18 14:07 40.298915 -122.295009 353 2976ft 154kts
08-Aug-18 14:08 40.344698 -122.295107 1 2980ft 170kts
08-Aug-18 14:09 40.392949 -122.295027 0 2623ft 175kts
08-Aug-18 14:10 40.441708 -122.294975 0 1700ft 171kts
08-Aug-18 14:11 40.473886 -122.294921 0 1062ft 101kts
08-Aug-18 14:12 40.508348 -122.294929 355 506ft 34kts
08-Aug-18 14:13 40.514234 -122.295679 268 506ft 0kts
08-Aug-18 14:14 40.513647 -122.296291 179 506ft 19kts
08-Aug-18 14:15 40.511093 -122.298916 179 506ft 0kts
08-Aug-18 14:16 40.511093 -122.298916 179 506ft 0kts

Navigation Log

Ident Type
Flight plan parsing failed, navigation log unavailable